createdAt,value
2023-03-24T00:01:56.263Z,8.32
2023-03-24T00:04:25.129Z,7.57
2023-03-24T00:06:52.576Z,7.95
2023-03-24T00:09:19.913Z,7.15
2023-03-24T00:11:47.273Z,7.72
2023-03-24T00:14:14.149Z,8.02
2023-03-24T00:16:43.132Z,7.85
2023-03-24T00:19:13.586Z,8.25
2023-03-24T00:21:42.135Z,7.65
2023-03-24T00:24:10.086Z,8.07
2023-03-24T00:26:39.177Z,7.97
2023-03-24T00:29:08.067Z,8.30
2023-03-24T00:31:40.125Z,8.07
2023-03-24T00:34:08.962Z,8.88
2023-03-24T00:36:36.883Z,8.07
2023-03-24T00:39:06.369Z,7.97
2023-03-24T00:41:33.811Z,7.68
2023-03-24T00:44:03.604Z,8.68
2023-03-24T00:46:30.780Z,7.93
2023-03-24T00:49:05.887Z,8.15
2023-03-24T00:51:38.814Z,8.32
2023-03-24T00:54:09.435Z,8.32
2023-03-24T00:56:40.691Z,8.15
2023-03-24T00:59:10.258Z,7.70
2023-03-24T01:01:41.169Z,7.95
2023-03-24T01:04:08.595Z,8.57
2023-03-24T01:06:39.432Z,9.02
2023-03-24T01:09:07.443Z,9.40
2023-03-24T01:11:40.334Z,8.77
2023-03-24T01:14:08.799Z,9.05
2023-03-24T01:16:36.352Z,9.57
2023-03-24T01:19:04.337Z,9.40
2023-03-24T01:21:31.867Z,9.23
2023-03-24T01:23:58.744Z,8.60
2023-03-24T01:26:25.532Z,8.90
2023-03-24T01:28:52.365Z,9.27
2023-03-24T01:31:19.357Z,9.57
2023-03-24T01:33:46.243Z,9.60
2023-03-24T01:36:13.168Z,9.43
2023-03-24T01:38:40.145Z,9.15
2023-03-24T01:41:07.464Z,9.88
2023-03-24T01:43:35.992Z,9.75
2023-03-24T01:46:18.776Z,10.02
2023-03-24T01:48:55.304Z,9.68
2023-03-24T01:51:35.667Z,9.88
2023-03-24T01:54:18.670Z,8.95
2023-03-24T01:56:57.057Z,9.43
2023-03-24T01:59:27.444Z,9.15
2023-03-24T02:02:03.006Z,9.48
2023-03-24T02:04:34.660Z,8.95
2023-03-24T02:07:28.496Z,9.48
2023-03-24T02:09:55.465Z,9.52
2023-03-24T02:12:22.358Z,9.38
2023-03-24T02:14:50.025Z,9.30
2023-03-24T02:17:48.633Z,10.38
2023-03-24T02:20:40.307Z,8.82
2023-03-24T02:23:32.047Z,9.82
2023-03-24T02:26:20.908Z,9.05
2023-03-24T02:29:27.849Z,8.85
2023-03-24T02:32:22.971Z,9.70
2023-03-24T02:35:12.654Z,8.95
2023-03-24T02:38:24.001Z,9.15
2023-03-24T02:41:05.082Z,9.45
2023-03-24T02:43:39.760Z,9.77
2023-03-24T02:46:23.843Z,9.43
2023-03-24T02:49:16.358Z,9.75
2023-03-24T02:51:50.366Z,9.13
2023-03-24T02:54:56.312Z,9.48
2023-03-24T02:57:36.226Z,8.88
2023-03-24T03:00:21.440Z,9.35
2023-03-24T03:02:56.120Z,9.88
2023-03-24T03:05:34.584Z,10.40
2023-03-24T03:08:06.123Z,9.90
2023-03-24T03:10:39.276Z,9.73
2023-03-24T03:13:14.770Z,9.82
2023-03-24T03:15:46.583Z,9.40
2023-03-24T03:19:00.036Z,9.32
2023-03-24T03:21:32.781Z,9.77
2023-03-24T03:24:07.138Z,9.82
2023-03-24T03:26:34.693Z,9.20
2023-03-24T03:29:19.053Z,9.98
2023-03-24T03:32:07.990Z,9.48
2023-03-24T03:34:37.929Z,9.90
2023-03-24T03:37:22.744Z,9.43
2023-03-24T03:39:58.920Z,9.98
2023-03-24T03:42:25.926Z,10.05
2023-03-24T03:44:53.406Z,10.25
2023-03-24T03:47:23.072Z,10.00
2023-03-24T03:49:51.058Z,10.27
2023-03-24T03:52:18.416Z,10.60
2023-03-24T03:54:45.790Z,10.55
2023-03-24T03:57:13.883Z,11.40
2023-03-24T03:59:41.050Z,11.90
2023-03-24T04:02:13.834Z,11.40
2023-03-24T04:05:03.230Z,12.02
2023-03-24T04:10:25.096Z,11.35
2023-03-24T04:13:15.740Z,12.90
2023-03-24T04:15:58.624Z,11.73
2023-03-24T04:18:47.249Z,11.68
2023-03-24T04:21:33.652Z,12.32
2023-03-24T04:24:06.746Z,13.05
2023-03-24T04:26:36.231Z,13.65
2023-03-24T04:29:09.220Z,14.82
2023-03-24T04:31:49.378Z,15.63
2023-03-24T04:34:29.351Z,16.10
2023-03-24T04:37:08.342Z,16.27
2023-03-24T04:39:39.273Z,16.20
2023-03-24T04:42:10.616Z,16.73
2023-03-24T04:44:37.770Z,17.10
2023-03-24T04:47:05.948Z,16.33
2023-03-24T04:49:32.732Z,17.92
2023-03-24T04:51:59.553Z,18.42
2023-03-24T04:54:29.866Z,18.40
2023-03-24T04:57:02.003Z,18.15
2023-03-24T04:59:30.505Z,18.85
2023-03-24T05:01:57.464Z,19.73
2023-03-24T05:04:26.181Z,18.67
2023-03-24T05:06:53.125Z,19.55
2023-03-24T05:09:21.895Z,19.60
2023-03-24T05:11:49.679Z,19.13
2023-03-24T05:14:17.101Z,20.27
2023-03-24T05:16:44.042Z,21.05
2023-03-24T05:19:11.104Z,22.02
2023-03-24T05:21:38.274Z,21.42
2023-03-24T05:24:06.836Z,23.00
2023-03-24T05:26:34.098Z,21.88
2023-03-24T05:29:01.023Z,22.23
2023-03-24T05:31:27.949Z,25.50
2023-03-24T05:33:55.664Z,25.50
2023-03-24T05:36:22.516Z,26.17
2023-03-24T05:38:49.484Z,26.90
2023-03-24T05:41:16.295Z,27.20
2023-03-24T05:43:43.119Z,27.85
2023-03-24T05:46:10.036Z,28.02
2023-03-24T05:48:36.760Z,28.27
2023-03-24T05:51:03.687Z,27.63
2023-03-24T05:53:31.164Z,28.55
2023-03-24T05:55:58.737Z,32.45
2023-03-24T05:58:25.810Z,29.65
2023-03-24T06:00:54.590Z,31.50
2023-03-24T06:03:21.636Z,31.15
2023-03-24T06:05:49.451Z,31.60
2023-03-24T06:08:17.306Z,31.15
2023-03-24T06:10:44.432Z,30.27
2023-03-24T06:13:11.404Z,30.90
2023-03-24T06:15:42.883Z,31.23
2023-03-24T06:18:09.993Z,33.45
2023-03-24T06:20:36.991Z,29.92
2023-03-24T06:23:03.887Z,30.40
2023-03-24T06:25:30.708Z,33.50
2023-03-24T06:28:04.044Z,30.63
2023-03-24T06:30:31.073Z,32.97
2023-03-24T06:32:58.362Z,31.98
2023-03-24T06:35:25.247Z,32.03
2023-03-24T06:37:52.141Z,33.28
2023-03-24T06:40:19.786Z,31.80
2023-03-24T06:42:46.642Z,32.53
2023-03-24T06:45:13.467Z,34.28
2023-03-24T06:47:40.831Z,30.73
2023-03-24T06:50:08.058Z,33.97
2023-03-24T06:52:35.743Z,35.22
2023-03-24T06:55:03.036Z,32.00
2023-03-24T06:57:30.406Z,35.22
2023-03-24T06:59:57.293Z,32.95
2023-03-24T07:02:24.272Z,32.90
2023-03-24T07:04:54.162Z,34.05
2023-03-24T07:07:53.372Z,36.42
2023-03-24T07:10:09.695Z,29.95
2023-03-24T07:12:36.731Z,31.88
2023-03-24T07:15:04.674Z,30.67
2023-03-24T07:17:31.721Z,31.10
2023-03-24T07:19:58.829Z,27.45
2023-03-24T07:22:25.928Z,29.02
2023-03-24T07:24:54.102Z,29.60
2023-03-24T07:27:21.400Z,30.40
2023-03-24T07:29:48.382Z,29.63
2023-03-24T07:32:15.488Z,27.27
2023-03-24T07:34:43.984Z,29.15
2023-03-24T07:37:11.398Z,29.17
2023-03-24T07:39:38.421Z,27.83
2023-03-24T07:42:06.121Z,27.85
2023-03-24T07:44:33.086Z,25.55
2023-03-24T07:46:59.945Z,25.25
2023-03-24T07:49:27.330Z,23.73
2023-03-24T07:51:54.264Z,24.88
2023-03-24T07:54:21.790Z,23.50
2023-03-24T07:56:48.865Z,24.73
2023-03-24T07:59:17.339Z,22.73
2023-03-24T08:01:44.603Z,25.42
2023-03-24T08:04:14.247Z,23.05
2023-03-24T08:06:44.190Z,22.60
2023-03-24T08:09:11.962Z,20.50
2023-03-24T08:11:39.405Z,24.30
2023-03-24T08:14:06.552Z,18.67
2023-03-24T08:16:33.556Z,22.23
2023-03-24T08:19:00.647Z,20.60
2023-03-24T08:21:27.686Z,16.50
2023-03-24T08:23:54.547Z,17.38
2023-03-24T08:26:22.671Z,18.65
2023-03-24T08:28:49.715Z,17.55
2023-03-24T08:31:16.709Z,16.85
2023-03-24T08:33:43.751Z,15.95
2023-03-24T08:36:10.882Z,16.13
2023-03-24T08:38:39.004Z,17.77
2023-03-24T08:41:07.246Z,16.88
2023-03-24T08:43:36.283Z,16.77
2023-03-24T08:46:03.521Z,15.27
2023-03-24T08:48:31.140Z,16.85
2023-03-24T08:50:57.969Z,15.23
2023-03-24T08:53:24.811Z,14.98
2023-03-24T08:58:31.966Z,15.55
2023-03-24T09:00:58.864Z,14.02
2023-03-24T09:03:26.352Z,11.95
2023-03-24T09:05:59.794Z,12.07
2023-03-24T09:08:28.181Z,11.30
2023-03-24T09:10:55.026Z,12.07
2023-03-24T09:13:22.242Z,11.57
2023-03-24T09:15:54.736Z,11.35
2023-03-24T09:18:22.276Z,10.80
2023-03-24T09:20:50.397Z,11.20
2023-03-24T09:23:17.605Z,10.07
2023-03-24T09:25:44.878Z,9.45
2023-03-24T09:28:12.043Z,9.38
2023-03-24T09:30:38.903Z,8.70
2023-03-24T09:33:06.343Z,9.90
2023-03-24T09:35:33.373Z,9.18
2023-03-24T09:38:00.557Z,9.75
2023-03-24T09:40:33.252Z,9.88
2023-03-24T09:43:24.146Z,9.80
2023-03-24T09:45:54.705Z,8.98
2023-03-24T09:48:47.211Z,8.55
2023-03-24T09:51:22.772Z,8.63
2023-03-24T09:54:04.850Z,8.32
2023-03-24T09:59:06.200Z,8.10
2023-03-24T10:01:36.209Z,8.35
2023-03-24T10:04:05.108Z,7.50
2023-03-24T10:06:41.844Z,8.25
2023-03-24T10:09:28.570Z,7.60
2023-03-24T10:12:26.309Z,8.50
2023-03-24T10:15:09.596Z,8.25
2023-03-24T10:17:58.249Z,8.27
2023-03-24T10:20:38.333Z,8.73
2023-03-24T10:23:29.678Z,8.07
2023-03-24T10:26:28.517Z,8.47
2023-03-24T10:29:22.609Z,8.65
2023-03-24T10:31:58.039Z,8.77
2023-03-24T10:34:30.479Z,8.65
2023-03-24T10:36:59.615Z,8.90
2023-03-24T10:39:37.871Z,9.38
2023-03-24T10:42:21.816Z,7.38
2023-03-24T10:44:51.320Z,7.60
2023-03-24T10:47:32.545Z,6.80
2023-03-24T10:50:12.752Z,7.68
2023-03-24T10:52:45.484Z,6.70
2023-03-24T10:55:19.341Z,7.47
2023-03-24T10:57:56.890Z,6.53
2023-03-24T11:00:32.305Z,6.38
2023-03-24T11:03:21.478Z,6.20
2023-03-24T11:05:48.764Z,6.72
2023-03-24T11:08:34.076Z,6.07
2023-03-24T11:11:00.952Z,6.00
2023-03-24T11:13:32.452Z,5.55
2023-03-24T11:16:14.350Z,6.00
2023-03-24T11:18:59.227Z,5.90
2023-03-24T11:21:28.658Z,6.40
2023-03-24T11:23:59.695Z,5.90
2023-03-24T11:26:35.926Z,5.53
2023-03-24T11:29:22.340Z,5.60
2023-03-24T11:31:58.525Z,4.85
2023-03-24T11:34:46.422Z,4.72
2023-03-24T11:37:29.614Z,4.20
2023-03-24T11:40:07.186Z,4.50
2023-03-24T11:42:34.128Z,4.70
2023-03-24T11:45:03.848Z,4.55
2023-03-24T11:47:33.263Z,4.72
2023-03-24T11:50:12.237Z,5.10
2023-03-24T11:52:55.054Z,5.13
2023-03-24T11:55:51.033Z,4.95
2023-03-24T11:58:40.563Z,5.20
2023-03-24T12:01:33.439Z,5.10
2023-03-24T12:04:29.420Z,5.90
2023-03-24T12:07:08.025Z,4.50
2023-03-24T12:09:53.688Z,5.05
2023-03-24T12:12:44.785Z,5.10
2023-03-24T12:15:28.965Z,5.53
2023-03-24T12:18:25.472Z,5.28
2023-03-24T12:21:37.548Z,5.10
2023-03-24T12:24:10.071Z,5.00
2023-03-24T12:26:39.292Z,5.00
2023-03-24T12:29:06.336Z,5.05
2023-03-24T12:31:36.038Z,5.32
2023-03-24T12:34:27.827Z,3.92
2023-03-24T12:37:14.695Z,4.68
2023-03-24T12:40:19.561Z,4.63
2023-03-24T12:42:47.052Z,4.85
2023-03-24T12:45:29.130Z,4.40
2023-03-24T12:48:05.095Z,3.63
2023-03-24T12:50:34.700Z,3.75
2023-03-24T12:53:34.574Z,4.50
2023-03-24T12:56:10.103Z,4.18
2023-03-24T12:58:39.861Z,4.03
2023-03-24T13:01:35.051Z,3.63
2023-03-24T13:04:01.944Z,3.88
2023-03-24T13:06:47.407Z,4.00
2023-03-24T13:09:40.265Z,3.33
2023-03-24T13:12:30.362Z,4.20
2023-03-24T13:15:12.410Z,3.75
2023-03-24T13:18:10.422Z,3.50
2023-03-24T13:20:54.429Z,3.67
2023-03-24T13:23:46.248Z,3.50
2023-03-24T13:26:36.763Z,4.38
2023-03-24T13:29:03.894Z,3.60
2023-03-24T13:31:54.088Z,3.50
2023-03-24T13:34:28.748Z,3.78
2023-03-24T13:37:02.691Z,3.70
2023-03-24T13:39:31.466Z,3.55
2023-03-24T13:41:59.496Z,3.38
2023-03-24T13:44:49.792Z,3.30
2023-03-24T13:47:18.410Z,3.30
2023-03-24T13:50:13.476Z,3.15
2023-03-24T13:52:46.758Z,3.10
2023-03-24T13:55:26.187Z,3.25
2023-03-24T13:58:13.212Z,2.97
2023-03-24T14:01:05.492Z,3.13
2023-03-24T14:06:07.568Z,3.30
2023-03-24T14:08:43.682Z,2.90
2023-03-24T14:11:41.452Z,3.10
2023-03-24T14:14:20.308Z,3.33
2023-03-24T14:17:05.318Z,2.40
2023-03-24T14:19:39.428Z,2.55
2023-03-24T14:22:11.937Z,2.30
2023-03-24T14:24:40.431Z,2.90
2023-03-24T14:27:35.056Z,3.08
2023-03-24T14:30:11.290Z,2.80
2023-03-24T14:32:46.562Z,2.80
2023-03-24T14:35:34.482Z,2.88
2023-03-24T14:38:16.376Z,2.42
2023-03-24T14:40:52.779Z,2.30
2023-03-24T14:43:26.051Z,2.53
2023-03-24T14:46:13.584Z,2.20
2023-03-24T14:48:51.655Z,2.10
2023-03-24T14:51:29.001Z,2.28
2023-03-24T14:53:59.574Z,2.10
2023-03-24T14:56:35.039Z,2.70
2023-03-24T14:59:08.724Z,2.38
2023-03-24T15:01:36.195Z,2.00
2023-03-24T15:04:07.190Z,2.08
2023-03-24T15:06:44.720Z,2.47
2023-03-24T15:09:11.652Z,2.17
2023-03-24T15:11:40.556Z,2.40
2023-03-24T15:14:22.795Z,2.25
2023-03-24T15:17:03.049Z,2.22
2023-03-24T15:19:31.472Z,2.10
2023-03-24T15:22:11.706Z,2.42
2023-03-24T15:24:42.321Z,2.13
2023-03-24T15:27:15.570Z,2.13
2023-03-24T15:29:44.233Z,2.20
2023-03-24T15:32:19.248Z,2.30
2023-03-24T15:34:52.063Z,2.00
2023-03-24T15:37:34.919Z,2.25
2023-03-24T15:40:15.109Z,2.13
2023-03-24T15:42:46.270Z,2.20
2023-03-24T15:45:28.865Z,2.60
2023-03-24T15:47:56.954Z,2.25
2023-03-24T15:50:34.519Z,2.60
2023-03-24T15:53:19.586Z,2.58
2023-03-24T15:55:46.480Z,2.30
2023-03-24T15:58:28.523Z,2.50
2023-03-24T16:03:26.563Z,2.40
2023-03-24T16:05:56.150Z,2.40
2023-03-24T16:08:31.698Z,2.08
2023-03-24T16:11:01.529Z,2.30
2023-03-24T16:13:28.726Z,2.70
2023-03-24T16:16:00.125Z,2.53
2023-03-24T16:18:33.251Z,2.80
2023-03-24T16:21:13.628Z,2.53
2023-03-24T16:23:42.416Z,2.50
2023-03-24T16:26:27.417Z,2.70
2023-03-24T16:28:57.007Z,3.30
2023-03-24T16:31:30.720Z,2.75
2023-03-24T16:33:58.269Z,2.90
2023-03-24T16:36:28.459Z,3.05
2023-03-24T16:38:57.798Z,2.70
2023-03-24T16:41:25.510Z,2.85
2023-03-24T16:43:53.295Z,2.58
2023-03-24T16:46:26.407Z,2.72
2023-03-24T16:48:53.750Z,2.38
2023-03-24T16:51:20.636Z,2.22
2023-03-24T16:53:48.126Z,2.35
2023-03-24T16:56:18.065Z,2.38
2023-03-24T16:58:48.057Z,1.83
2023-03-24T17:01:39.727Z,2.08
2023-03-24T17:04:16.346Z,1.40
2023-03-24T17:06:53.532Z,1.20
2023-03-24T17:09:21.032Z,1.50
2023-03-24T17:11:51.578Z,1.63
2023-03-24T17:14:18.734Z,1.75
2023-03-24T17:16:49.162Z,1.83
2023-03-24T17:19:18.946Z,1.88
2023-03-24T17:22:11.236Z,2.20
